• Join FlightAware (Why Join?)
  • Login
  • US Flag 
09:55AM EDT


 

Airport Tracker/Info


-or-


 

Live Flight TrackerFlight Track Log ✈ N418GJ ✈ 14-May-2013 ✈ KGSO - CYOW

Flight Track Log - Related Links

Times and Time Zones

All times are in EDT time to prevent confusion due to time zone crossing. See the N418GJ flight status page for this flight to view local times or setup timezone preferences in your user account.

Time Position Orientation Groundspeed Altitude Reporting Facility
EDT Latitude Longitude Course Direction KTS MPH feet Rate Location/Type
03:44PM 35.9975 -79.9436 50° Northeast 239 275 5,600  Level Washington Center
03:44PM 35.9986 -79.8617 89° East 197 227 8,200 2,520 Climbing Washington Center
03:45PM 36.0467 -79.8000 46° Northeast 172 198 10,600 1,860 Climbing Washington Center
03:47PM 36.1056 -79.7233 46° Northeast 247 284 12,000 900 Climbing Washington Center
03:47PM 36.1625 -79.6492 46° Northeast 284 327 12,400 1,260 Climbing Washington Center
03:48PM 36.2996 -79.4840 55° Northeast  Level FlightAware Approximate
03:48PM 36.2256 -79.5700 45° Northeast 313 360 14,500  Level Washington Center
03:49PM 36.3572 -79.3976 50° Northeast  Level FlightAware Approximate
03:49PM 36.2886 -79.4908 45° Northeast 313 360 16,400  Level Washington Center
03:50PM 36.3453 -79.4164 47° Northeast 318 366 18,000 1,680 Climbing Washington Center
03:52PM 36.4144 -79.3422 41° Northeast 311 358 19,900 1,620 Climbing Washington Center
03:52PM 36.4900 -79.3278 North 291 335 21,300 1,440 Climbing Washington Center
03:53PM 36.5758 -79.3189 North 286 329 22,800 1,440 Climbing Washington Center
03:54PM 36.6597 -79.3075 North 297 342 24,300 1,560 Climbing Washington Center
03:56PM 36.7519 -79.2964 North 297 342 26,000 1,320 Climbing Washington Center
03:57PM 36.8356 -79.2872 North 297 342 27,000 600 Climbing Washington Center
03:57PM 36.9297 -79.2736 North 312 359 27,200 780 Climbing Washington Center
03:58PM 37.0261 -79.2628 North 332 382 28,600 1,380 Climbing Washington Center
03:59PM 37.1100 -79.2511 North 343 395 30,100 1,380 Climbing Washington Center
04:01PM 37.2022 -79.2397 North 338 389 31,500 1,380 Climbing Washington Center
04:02PM 37.2900 -79.2283 North 327 376 33,000 1,620 Climbing Washington Center
04:02PM 37.3867 -79.2042 11° North 322 371 34,800 1,500 Climbing Washington Center
04:03PM 37.4692 -79.1714 18° North 311 358 36,000 1,140 Climbing Washington Center
04:04PM 37.5478 -79.1175 29° Northeast 311 358 37,100 1,020 Climbing Washington Center
04:05PM 37.6164 -79.0606 33° Northeast 316 364 38,100 900 Climbing Washington Center
04:07PM 37.6889 -79.0008 33° Northeast 316 364 39,000 480 Climbing Washington Center
04:08PM 37.7692 -78.9650 19° North 304 350 39,100  Climbing Washington Center
04:08PM 37.8664 -78.9219 19° North 310 357 39,100  Level Washington Center
04:09PM 37.9553 -78.8783 21° North 328 377 39,100  Level Washington Center
04:11PM 38.0522 -78.8353 19° North 343 395 39,100  Level Washington Center
04:12PM 38.1389 -78.7942 20° North 362 417 39,100  Level Washington Center
04:12PM 38.2361 -78.7481 20° North 368 423 39,100 240 Level Washington Center
04:13PM 38.3417 -78.6969 21° North 368 423 39,600 420 Climbing Washington Center
04:15PM 38.4178 -78.6603 21° North 368 423 40,000 420 Climbing Washington Center
04:16PM 38.5189 -78.6114 21° North 363 418 40,500 480 Climbing Washington Center
04:17PM 38.6097 -78.5672 21° North 356 410 41,000 300 Climbing Washington Center
04:17PM 38.7025 -78.5233 20° North 356 410 41,100  Climbing Washington Center
04:19PM 38.7953 -78.4789 20° North 356 410 41,100  Level Washington Center
04:19PM 38.8883 -78.4319 21° North 356 410 41,100  Level Washington Center
04:20PM 38.9811 -78.3875 20° North 356 410 41,100  Level Washington Center
04:22PM 39.0739 -78.3403 22° Northeast 356 410 41,100  Level Washington Center
04:22PM 39.1686 -78.2956 20° North 356 410 41,100  Level Washington Center
04:23PM 39.2592 -78.2481 22° Northeast 356 410 41,100  Level Washington Center
04:24PM 39.3542 -78.2031 20° North 356 410 41,100  Level Washington Center
04:26PM 39.5419 -78.1092 21° North 360 414 41,100  Level Cleveland Center
04:27PM 39.6350 -78.0653 20° North 360 414 41,100  Level Cleveland Center
04:28PM 39.7297 -78.0161 22° Northeast 365 420 41,100  Level Cleveland Center
04:30PM 39.8853 -77.9408 20° North 350 403 41,100  Level New York Center
04:31PM 39.9800 -77.8908 22° Northeast 355 409 41,100  Level New York Center
04:32PM 40.0725 -77.8433 21° North 360 414 41,100  Level New York Center
04:33PM 40.1606 -77.7981 21° North 360 414 41,100  Level New York Center
04:34PM 40.2553 -77.7503 21° North 360 414 41,100  Level New York Center
04:35PM 40.3517 -77.7083 18° North 360 414 41,100  Level New York Center
04:36PM 40.4500 -77.6664 18° North 360 414 41,100  Level New York Center
04:37PM 40.5461 -77.6242 18° North 360 414 41,100  Level New York Center
04:38PM 40.6531 -77.5772 18° North 360 414 41,100  Level New York Center
04:39PM 40.7492 -77.5375 17° North 360 414 41,100  Level New York Center
04:40PM 40.8456 -77.4947 19° North 360 414 41,100  Level New York Center
04:41PM 40.9436 -77.4522 18° North 360 414 41,100  Level New York Center
04:42PM 41.0400 -77.4067 20° North 360 414 41,100  Level New York Center
04:43PM 41.1169 -77.3756 17° North 360 414 41,100  Level New York Center
04:44PM 41.2236 -77.3308 18° North 360 414 41,100  Level New York Center
04:45PM 41.3194 -77.2906 18° North 360 414 41,100  Level New York Center
04:46PM 41.4242 -77.2425 19° North 354 407 41,100  Level New York Center
04:48PM 41.6622 -77.1364 18° North 362 417 41,100  Level Cleveland Center
04:49PM 41.7589 -77.0922 19° North 357 411 41,100  Level Cleveland Center
04:50PM 41.8556 -77.0481 19° North 357 411 41,100  Level Cleveland Center
04:51PM 41.9522 -77.0064 18° North 362 417 41,100  Level Cleveland Center
04:53PM 42.1453 -76.9183 19° North 382 440 41,100  Level Boston Center
04:54PM 42.2428 -76.8747 18° North 375 432 41,100  Level Boston Center
04:55PM 42.3406 -76.8311 18° North 370 426 41,100  Level Boston Center
04:56PM 42.4381 -76.7844 19° North 370 426 41,100  Level Boston Center
04:57PM 42.5381 -76.7378 19° North 370 426 41,100  Level Boston Center
04:58PM 42.6378 -76.6911 19° North 375 432 41,100  Level Boston Center
04:59PM 42.7353 -76.6469 18° North 375 432 41,100 -60 Level Boston Center
05:00PM 42.8286 -76.6053 18° North 375 432 41,000 -60 Descending Boston Center
05:01PM 42.9283 -76.5581 19° North 375 432 41,000  Level Boston Center
05:02PM 43.0281 -76.5106 19° North 375 432 41,000 -60 Level Boston Center
05:03PM 43.1297 -76.4633 19° North 375 432 40,900 -780 Descending Boston Center
05:04PM 43.2336 -76.4133 19° North 381 438 39,500 -1,500 Descending Boston Center
05:05PM 43.3333 -76.3656 19° North 381 438 37,900 -1,740 Descending Boston Center
05:06PM 43.4222 -76.3225 19° North 360 414 36,000 -1,860 Descending Boston Center
05:07PM 43.5050 -76.2819 20° North 330 380 34,200 -1,860 Descending Boston Center
05:08PM 43.5833 -76.2469 18° North 309 356 32,400 -1,920 Descending Boston Center
05:09PM 43.6639 -76.2061 20° North 304 350 30,500 -1,920 Descending Boston Center
05:10PM 43.7486 -76.1653 19° North 309 356 28,600 -1,920 Descending Boston Center
05:11PM 43.8417 -76.1222 18° North 314 361 26,700 -1,980 Descending Boston Center
05:12PM 43.9328 -76.0758 20° North 319 367 24,700 -1,380 Descending Boston Center
05:13PM 44.0328 -76.0183 22° Northeast 351 404 24,000 -360 Descending Boston Center
05:14PM 44.1328 -75.9461 27° Northeast 378 435 24,000 -300 Level Boston Center
05:15PM 44.2369 -75.8800 24° Northeast 400 460 23,400 -1,260 Descending Boston Center
05:16PM 44.3369 -75.8131 26° Northeast 406 467 21,500 -1,980 Descending Boston Center
05:17PM 44.3833 -75.7500 44° Northeast 400 460 20,100 -1,980 Descending Montreal Center
05:18PM 44.4833 -75.7167 13° North 390 449 18,200 -2,040 Descending Montreal Center
05:19PM 44.5833 -75.6333 31° Northeast 370 426 16,100 -1,980 Descending Montreal Center
05:19PM 44.6236 -75.6225 11° North 372 428 15,600 -1,920 Descending Boston Center
05:20PM 44.6667 -75.6000 20° North 360 414 14,200 -2,100 Descending Montreal Center
05:21PM 44.7667 -75.5167 31° Northeast 360 414 12,100 -2,100 Descending Montreal Center
05:22PM 44.8500 -75.4667 23° Northeast 340 391 10,100 -2,100 Descending Montreal Center
05:23PM 44.9167 -75.4000 35° Northeast 280 322 8,000 -2,100 Descending Montreal Center
05:24PM 45.0000 -75.4000 360° North 270 311 6,000 -1,500 Descending Montreal Center
05:25PM 45.0667 -75.4167 350° North 270 311 5,000 -720 Descending Montreal Center
05:26PM 45.1333 -75.4500 341° North 240 276 4,600 -1,080 Descending Montreal Center
05:27PM 45.1833 -75.5000 325° Northwest 230 265 2,900 -1,020 Descending Montreal Center
05:28PM 45.2333 -75.5333 335° Northwest 200 230 2,600 -720 Descending Montreal Center
05:29PM 45.2667 -75.5833 313° West 160 184 1,500 -960 Descending Montreal Center
05:30PM 45.2833 -75.6333 295° West 120 138 700 -600 Descending Montreal Center
05:31PM 45.3000 -75.6667 305° West 70 81 400 -300 Descending Montreal Center